sensor_id;sensor_type;location;lat;lon;timestamp;P1;durP1;ratioP1;P2;durP2;ratioP2
3967;SDS011;9221;42.646;23.380;2022-12-26T00:01:19;4.60;;;2.13;;
3967;SDS011;9221;42.646;23.380;2022-12-26T00:03:46;6.10;;;2.67;;
3967;SDS011;9221;42.646;23.380;2022-12-26T00:06:13;8.27;;;2.27;;
3967;SDS011;9221;42.646;23.380;2022-12-26T00:08:40;7.87;;;2.73;;
3967;SDS011;9221;42.646;23.380;2022-12-26T00:11:07;8.00;;;2.53;;
3967;SDS011;9221;42.646;23.380;2022-12-26T00:13:32;8.80;;;2.53;;
3967;SDS011;9221;42.646;23.380;2022-12-26T00:15:57;5.70;;;2.17;;
3967;SDS011;9221;42.646;23.380;2022-12-26T00:18:23;8.13;;;2.10;;
3967;SDS011;9221;42.646;23.380;2022-12-26T00:20:48;5.37;;;2.53;;
3967;SDS011;9221;42.646;23.380;2022-12-26T00:23:14;7.57;;;2.73;;
3967;SDS011;9221;42.646;23.380;2022-12-26T00:25:39;8.63;;;2.03;;
3967;SDS011;9221;42.646;23.380;2022-12-26T00:28:04;7.00;;;2.17;;
3967;SDS011;9221;42.646;23.380;2022-12-26T00:30:30;6.07;;;2.07;;
3967;SDS011;9221;42.646;23.380;2022-12-26T00:32:55;9.13;;;2.20;;
3967;SDS011;9221;42.646;23.380;2022-12-26T00:35:21;6.70;;;2.47;;
3967;SDS011;9221;42.646;23.380;2022-12-26T00:37:46;6.83;;;2.30;;
3967;SDS011;9221;42.646;23.380;2022-12-26T00:40:12;11.33;;;2.70;;
3967;SDS011;9221;42.646;23.380;2022-12-26T00:42:37;7.53;;;2.13;;
3967;SDS011;9221;42.646;23.380;2022-12-26T00:45:02;13.50;;;2.50;;
3967;SDS011;9221;42.646;23.380;2022-12-26T00:47:28;7.70;;;2.60;;
3967;SDS011;9221;42.646;23.380;2022-12-26T00:49:53;11.30;;;3.07;;
3967;SDS011;9221;42.646;23.380;2022-12-26T00:52:19;8.60;;;3.37;;
3967;SDS011;9221;42.646;23.380;2022-12-26T00:54:44;10.17;;;3.17;;
3967;SDS011;9221;42.646;23.380;2022-12-26T00:57:09;10.30;;;2.20;;
3967;SDS011;9221;42.646;23.380;2022-12-26T00:59:35;6.97;;;2.90;;
3967;SDS011;9221;42.646;23.380;2022-12-26T01:02:00;4.87;;;1.83;;
3967;SDS011;9221;42.646;23.380;2022-12-26T01:04:46;11.13;;;2.63;;
3967;SDS011;9221;42.646;23.380;2022-12-26T01:07:11;13.53;;;3.40;;
3967;SDS011;9221;42.646;23.380;2022-12-26T01:09:36;8.17;;;2.70;;
3967;SDS011;9221;42.646;23.380;2022-12-26T01:12:02;12.50;;;3.87;;
3967;SDS011;9221;42.646;23.380;2022-12-26T01:14:28;11.63;;;3.13;;
3967;SDS011;9221;42.646;23.380;2022-12-26T01:16:53;10.90;;;3.97;;
3967;SDS011;9221;42.646;23.380;2022-12-26T01:19:18;13.70;;;4.30;;
3967;SDS011;9221;42.646;23.380;2022-12-26T01:21:44;11.47;;;3.40;;
3967;SDS011;9221;42.646;23.380;2022-12-26T01:24:09;9.10;;;3.57;;
3967;SDS011;9221;42.646;23.380;2022-12-26T01:26:35;9.50;;;4.37;;
3967;SDS011;9221;42.646;23.380;2022-12-26T01:29:00;11.57;;;4.13;;
3967;SDS011;9221;42.646;23.380;2022-12-26T01:31:26;8.40;;;4.30;;
3967;SDS011;9221;42.646;23.380;2022-12-26T01:33:51;11.90;;;4.97;;
3967;SDS011;9221;42.646;23.380;2022-12-26T01:36:17;16.83;;;4.10;;
3967;SDS011;9221;42.646;23.380;2022-12-26T01:38:43;14.97;;;3.60;;
3967;SDS011;9221;42.646;23.380;2022-12-26T01:41:09;17.33;;;4.33;;
3967;SDS011;9221;42.646;23.380;2022-12-26T01:43:48;17.50;;;4.20;;
3967;SDS011;9221;42.646;23.380;2022-12-26T01:46:14;11.60;;;4.10;;
3967;SDS011;9221;42.646;23.380;2022-12-26T01:48:41;13.13;;;4.13;;
3967;SDS011;9221;42.646;23.380;2022-12-26T01:51:06;9.07;;;3.80;;
3967;SDS011;9221;42.646;23.380;2022-12-26T01:53:35;10.40;;;3.90;;
3967;SDS011;9221;42.646;23.380;2022-12-26T01:56:11;10.17;;;3.37;;
3967;SDS011;9221;42.646;23.380;2022-12-26T01:58:42;14.30;;;4.27;;
3967;SDS011;9221;42.646;23.380;2022-12-26T02:01:11;10.60;;;3.90;;
3967;SDS011;9221;42.646;23.380;2022-12-26T02:03:38;8.30;;;3.23;;
3967;SDS011;9221;42.646;23.380;2022-12-26T02:06:25;7.10;;;2.78;;
3967;SDS011;9221;42.646;23.380;2022-12-26T02:08:51;12.37;;;3.67;;
3967;SDS011;9221;42.646;23.380;2022-12-26T02:11:21;6.93;;;2.83;;
3967;SDS011;9221;42.646;23.380;2022-12-26T02:13:51;9.13;;;3.40;;
3967;SDS011;9221;42.646;23.380;2022-12-26T02:16:18;7.50;;;2.30;;
3967;SDS011;9221;42.646;23.380;2022-12-26T02:18:44;5.73;;;2.30;;
3967;SDS011;9221;42.646;23.380;2022-12-26T02:21:17;7.80;;;2.47;;
3967;SDS011;9221;42.646;23.380;2022-12-26T02:42:22;9.00;;;2.20;;
3967;SDS011;9221;42.646;23.380;2022-12-26T02:44:39;5.30;;;1.90;;
3967;SDS011;9221;42.646;23.380;2022-12-26T02:50:32;4.50;;;1.97;;
3967;SDS011;9221;42.646;23.380;2022-12-26T02:53:48;3.40;;;1.60;;
3967;SDS011;9221;42.646;23.380;2022-12-26T02:56:45;6.63;;;2.20;;
3967;SDS011;9221;42.646;23.380;2022-12-26T02:59:42;5.17;;;2.27;;
3967;SDS011;9221;42.646;23.380;2022-12-26T03:02:35;4.70;;;2.13;;
3967;SDS011;9221;42.646;23.380;2022-12-26T03:05:28;7.63;;;1.60;;
3967;SDS011;9221;42.646;23.380;2022-12-26T03:08:17;6.00;;;1.80;;
3967;SDS011;9221;42.646;23.380;2022-12-26T03:11:07;5.10;;;2.07;;
3967;SDS011;9221;42.646;23.380;2022-12-26T03:14:13;5.40;;;2.40;;
3967;SDS011;9221;42.646;23.380;2022-12-26T03:16:43;4.30;;;2.30;;
3967;SDS011;9221;42.646;23.380;2022-12-26T03:20:11;3.60;;;2.10;;
3967;SDS011;9221;42.646;23.380;2022-12-26T03:22:49;5.00;;;2.60;;
3967;SDS011;9221;42.646;23.380;2022-12-26T03:28:31;11.63;;;3.03;;
3967;SDS011;9221;42.646;23.380;2022-12-26T03:30:57;10.43;;;4.43;;
3967;SDS011;9221;42.646;23.380;2022-12-26T03:33:29;12.00;;;4.80;;
3967;SDS011;9221;42.646;23.380;2022-12-26T03:50:36;16.27;;;6.80;;
3967;SDS011;9221;42.646;23.380;2022-12-26T03:53:41;19.63;;;6.20;;
3967;SDS011;9221;42.646;23.380;2022-12-26T03:56:37;19.88;;;6.28;;
3967;SDS011;9221;42.646;23.380;2022-12-26T03:59:27;13.27;;;5.13;;
3967;SDS011;9221;42.646;23.380;2022-12-26T04:02:16;18.20;;;6.33;;
3967;SDS011;9221;42.646;23.380;2022-12-26T04:05:02;15.77;;;5.93;;
3967;SDS011;9221;42.646;23.380;2022-12-26T04:07:51;24.67;;;5.90;;
3967;SDS011;9221;42.646;23.380;2022-12-26T04:10:42;16.20;;;6.00;;
3967;SDS011;9221;42.646;23.380;2022-12-26T04:22:33;16.90;;;5.10;;
3967;SDS011;9221;42.646;23.380;2022-12-26T04:25:27;9.77;;;3.63;;
3967;SDS011;9221;42.646;23.380;2022-12-26T04:28:18;8.13;;;3.33;;
3967;SDS011;9221;42.646;23.380;2022-12-26T04:31:09;8.97;;;3.80;;
3967;SDS011;9221;42.646;23.380;2022-12-26T04:34:00;9.57;;;2.80;;
3967;SDS011;9221;42.646;23.380;2022-12-26T04:36:51;7.87;;;2.93;;
3967;SDS011;9221;42.646;23.380;2022-12-26T04:39:38;7.50;;;2.83;;
3967;SDS011;9221;42.646;23.380;2022-12-26T04:42:27;8.17;;;3.27;;
3967;SDS011;9221;42.646;23.380;2022-12-26T04:45:12;13.57;;;3.93;;
3967;SDS011;9221;42.646;23.380;2022-12-26T04:47:38;7.57;;;3.30;;
3967;SDS011;9221;42.646;23.380;2022-12-26T04:50:24;12.60;;;4.37;;
3967;SDS011;9221;42.646;23.380;2022-12-26T04:52:50;8.67;;;3.53;;
3967;SDS011;9221;42.646;23.380;2022-12-26T04:55:28;15.10;;;3.57;;
3967;SDS011;9221;42.646;23.380;2022-12-26T04:57:55;11.90;;;3.20;;
3967;SDS011;9221;42.646;23.380;2022-12-26T05:00:20;12.03;;;4.23;;
3967;SDS011;9221;42.646;23.380;2022-12-26T05:02:49;12.50;;;3.17;;
3967;SDS011;9221;42.646;23.380;2022-12-26T05:05:36;10.17;;;3.67;;
3967;SDS011;9221;42.646;23.380;2022-12-26T05:08:29;11.33;;;3.30;;
3967;SDS011;9221;42.646;23.380;2022-12-26T05:11:16;14.97;;;5.00;;
3967;SDS011;9221;42.646;23.380;2022-12-26T05:13:42;19.50;;;5.33;;
3967;SDS011;9221;42.646;23.380;2022-12-26T05:16:07;15.83;;;5.27;;
3967;SDS011;9221;42.646;23.380;2022-12-26T05:18:51;16.03;;;5.07;;
3967;SDS011;9221;42.646;23.380;2022-12-26T05:21:35;21.77;;;5.17;;
3967;SDS011;9221;42.646;23.380;2022-12-26T05:24:20;13.37;;;4.27;;
3967;SDS011;9221;42.646;23.380;2022-12-26T05:27:04;27.47;;;4.40;;
3967;SDS011;9221;42.646;23.380;2022-12-26T05:29:52;8.10;;;3.47;;
3967;SDS011;9221;42.646;23.380;2022-12-26T05:32:17;11.27;;;2.90;;
3967;SDS011;9221;42.646;23.380;2022-12-26T05:35:01;12.87;;;3.80;;
3967;SDS011;9221;42.646;23.380;2022-12-26T05:37:27;12.90;;;4.73;;
3967;SDS011;9221;42.646;23.380;2022-12-26T05:39:52;15.10;;;3.50;;
3967;SDS011;9221;42.646;23.380;2022-12-26T05:42:17;19.77;;;4.70;;
3967;SDS011;9221;42.646;23.380;2022-12-26T05:44:43;13.07;;;3.50;;
3967;SDS011;9221;42.646;23.380;2022-12-26T05:47:08;10.10;;;3.37;;
3967;SDS011;9221;42.646;23.380;2022-12-26T05:49:34;8.57;;;2.63;;
3967;SDS011;9221;42.646;23.380;2022-12-26T05:51:59;10.87;;;2.70;;
3967;SDS011;9221;42.646;23.380;2022-12-26T05:54:24;8.63;;;2.60;;
3967;SDS011;9221;42.646;23.380;2022-12-26T05:56:50;6.70;;;2.30;;
3967;SDS011;9221;42.646;23.380;2022-12-26T05:59:17;12.90;;;2.90;;
3967;SDS011;9221;42.646;23.380;2022-12-26T06:01:42;8.90;;;2.90;;
3967;SDS011;9221;42.646;23.380;2022-12-26T06:04:08;4.30;;;2.30;;
3967;SDS011;9221;42.646;23.380;2022-12-26T06:06:33;14.03;;;3.63;;
3967;SDS011;9221;42.646;23.380;2022-12-26T06:08:58;10.03;;;4.10;;
3967;SDS011;9221;42.646;23.380;2022-12-26T06:11:24;14.83;;;5.07;;
3967;SDS011;9221;42.646;23.380;2022-12-26T06:13:50;11.10;;;4.60;;
3967;SDS011;9221;42.646;23.380;2022-12-26T06:16:17;13.43;;;4.33;;
3967;SDS011;9221;42.646;23.380;2022-12-26T06:18:43;19.10;;;5.13;;
3967;SDS011;9221;42.646;23.380;2022-12-26T06:21:10;16.53;;;5.20;;
3967;SDS011;9221;42.646;23.380;2022-12-26T06:23:38;12.40;;;4.20;;
3967;SDS011;9221;42.646;23.380;2022-12-26T06:26:04;14.20;;;4.70;;
3967;SDS011;9221;42.646;23.380;2022-12-26T06:28:29;17.20;;;5.53;;
3967;SDS011;9221;42.646;23.380;2022-12-26T06:31:05;13.33;;;3.90;;
3967;SDS011;9221;42.646;23.380;2022-12-26T06:33:42;12.60;;;3.80;;
3967;SDS011;9221;42.646;23.380;2022-12-26T06:36:09;26.33;;;6.87;;
3967;SDS011;9221;42.646;23.380;2022-12-26T06:38:36;17.27;;;6.40;;
3967;SDS011;9221;42.646;23.380;2022-12-26T06:41:04;13.47;;;5.60;;
3967;SDS011;9221;42.646;23.380;2022-12-26T06:43:34;8.33;;;3.50;;
3967;SDS011;9221;42.646;23.380;2022-12-26T06:46:00;7.47;;;3.13;;
3967;SDS011;9221;42.646;23.380;2022-12-26T06:48:30;13.53;;;4.67;;
3967;SDS011;9221;42.646;23.380;2022-12-26T06:50:55;8.50;;;3.30;;
3967;SDS011;9221;42.646;23.380;2022-12-26T06:53:22;13.00;;;3.53;;
3967;SDS011;9221;42.646;23.380;2022-12-26T06:55:48;10.83;;;3.60;;
3967;SDS011;9221;42.646;23.380;2022-12-26T06:58:15;9.90;;;3.07;;
3967;SDS011;9221;42.646;23.380;2022-12-26T07:00:41;7.47;;;2.60;;
3967;SDS011;9221;42.646;23.380;2022-12-26T07:03:07;10.33;;;3.47;;
3967;SDS011;9221;42.646;23.380;2022-12-26T07:05:35;10.27;;;3.60;;
3967;SDS011;9221;42.646;23.380;2022-12-26T07:08:01;6.77;;;2.20;;
3967;SDS011;9221;42.646;23.380;2022-12-26T07:10:27;6.00;;;2.37;;
3967;SDS011;9221;42.646;23.380;2022-12-26T07:12:53;5.37;;;2.47;;
3967;SDS011;9221;42.646;23.380;2022-12-26T07:15:18;13.00;;;3.27;;
3967;SDS011;9221;42.646;23.380;2022-12-26T07:17:43;5.57;;;1.87;;
3967;SDS011;9221;42.646;23.380;2022-12-26T07:20:09;4.27;;;2.10;;
3967;SDS011;9221;42.646;23.380;2022-12-26T07:22:35;13.03;;;2.27;;
3967;SDS011;9221;42.646;23.380;2022-12-26T07:25:00;8.17;;;2.20;;
3967;SDS011;9221;42.646;23.380;2022-12-26T07:27:26;3.47;;;1.67;;
3967;SDS011;9221;42.646;23.380;2022-12-26T07:29:51;8.03;;;2.30;;
3967;SDS011;9221;42.646;23.380;2022-12-26T07:32:17;6.07;;;2.60;;
3967;SDS011;9221;42.646;23.380;2022-12-26T07:34:42;9.67;;;2.53;;
3967;SDS011;9221;42.646;23.380;2022-12-26T07:37:08;10.33;;;2.80;;
3967;SDS011;9221;42.646;23.380;2022-12-26T07:39:33;9.03;;;2.93;;
3967;SDS011;9221;42.646;23.380;2022-12-26T07:42:01;6.50;;;2.83;;
3967;SDS011;9221;42.646;23.380;2022-12-26T07:44:28;15.33;;;2.80;;
3967;SDS011;9221;42.646;23.380;2022-12-26T07:46:54;7.40;;;3.17;;
3967;SDS011;9221;42.646;23.380;2022-12-26T07:49:22;11.40;;;3.63;;
3967;SDS011;9221;42.646;23.380;2022-12-26T07:51:48;9.50;;;4.47;;
3967;SDS011;9221;42.646;23.380;2022-12-26T07:54:14;13.63;;;5.20;;
3967;SDS011;9221;42.646;23.380;2022-12-26T07:56:40;16.57;;;5.80;;
3967;SDS011;9221;42.646;23.380;2022-12-26T07:59:06;14.40;;;5.70;;
3967;SDS011;9221;42.646;23.380;2022-12-26T08:01:31;13.37;;;5.53;;
3967;SDS011;9221;42.646;23.380;2022-12-26T08:03:57;10.90;;;4.33;;
3967;SDS011;9221;42.646;23.380;2022-12-26T08:06:22;18.27;;;6.20;;
3967;SDS011;9221;42.646;23.380;2022-12-26T08:08:49;12.90;;;6.10;;
3967;SDS011;9221;42.646;23.380;2022-12-26T08:11:16;20.80;;;6.87;;
3967;SDS011;9221;42.646;23.380;2022-12-26T08:13:44;16.30;;;5.77;;
3967;SDS011;9221;42.646;23.380;2022-12-26T08:16:10;20.00;;;6.90;;
3967;SDS011;9221;42.646;23.380;2022-12-26T08:18:37;23.40;;;6.43;;
3967;SDS011;9221;42.646;23.380;2022-12-26T08:21:03;23.43;;;6.70;;
3967;SDS011;9221;42.646;23.380;2022-12-26T08:23:28;15.20;;;5.70;;
3967;SDS011;9221;42.646;23.380;2022-12-26T08:25:54;15.17;;;6.50;;
3967;SDS011;9221;42.646;23.380;2022-12-26T08:28:20;21.43;;;7.97;;
3967;SDS011;9221;42.646;23.380;2022-12-26T08:30:45;14.60;;;6.60;;
3967;SDS011;9221;42.646;23.380;2022-12-26T08:33:11;18.43;;;6.80;;
3967;SDS011;9221;42.646;23.380;2022-12-26T08:35:37;14.70;;;6.63;;
3967;SDS011;9221;42.646;23.380;2022-12-26T08:38:04;17.93;;;8.70;;
3967;SDS011;9221;42.646;23.380;2022-12-26T08:40:30;29.70;;;10.83;;
3967;SDS011;9221;42.646;23.380;2022-12-26T08:42:55;25.07;;;10.37;;
3967;SDS011;9221;42.646;23.380;2022-12-26T08:45:20;26.37;;;10.03;;
3967;SDS011;9221;42.646;23.380;2022-12-26T08:47:46;23.57;;;9.67;;
3967;SDS011;9221;42.646;23.380;2022-12-26T08:50:12;20.30;;;9.17;;
3967;SDS011;9221;42.646;23.380;2022-12-26T08:52:37;20.73;;;8.57;;
3967;SDS011;9221;42.646;23.380;2022-12-26T08:55:03;24.13;;;8.93;;
3967;SDS011;9221;42.646;23.380;2022-12-26T08:57:28;16.37;;;6.80;;
3967;SDS011;9221;42.646;23.380;2022-12-26T08:59:54;16.93;;;8.00;;
3967;SDS011;9221;42.646;23.380;2022-12-26T09:02:19;18.60;;;8.23;;
3967;SDS011;9221;42.646;23.380;2022-12-26T09:04:45;16.57;;;7.63;;
3967;SDS011;9221;42.646;23.380;2022-12-26T09:07:10;20.10;;;7.20;;
3967;SDS011;9221;42.646;23.380;2022-12-26T09:09:35;18.90;;;6.97;;
3967;SDS011;9221;42.646;23.380;2022-12-26T09:12:01;16.33;;;7.45;;
3967;SDS011;9221;42.646;23.380;2022-12-26T09:14:26;18.10;;;8.03;;
3967;SDS011;9221;42.646;23.380;2022-12-26T09:16:52;19.20;;;7.60;;
3967;SDS011;9221;42.646;23.380;2022-12-26T09:19:18;21.57;;;7.67;;
3967;SDS011;9221;42.646;23.380;2022-12-26T09:21:45;13.18;;;6.85;;
3967;SDS011;9221;42.646;23.380;2022-12-26T09:24:12;26.17;;;7.80;;
3967;SDS011;9221;42.646;23.380;2022-12-26T09:26:40;25.20;;;9.60;;
3967;SDS011;9221;42.646;23.380;2022-12-26T09:29:06;23.33;;;9.60;;
3967;SDS011;9221;42.646;23.380;2022-12-26T09:31:32;38.87;;;11.33;;
3967;SDS011;9221;42.646;23.380;2022-12-26T09:34:02;26.00;;;9.70;;
3967;SDS011;9221;42.646;23.380;2022-12-26T09:36:30;30.40;;;9.80;;
3967;SDS011;9221;42.646;23.380;2022-12-26T09:38:57;15.90;;;6.90;;
3967;SDS011;9221;42.646;23.380;2022-12-26T09:49:36;22.20;;;8.47;;
3967;SDS011;9221;42.646;23.380;2022-12-26T09:52:10;19.40;;;5.90;;
3967;SDS011;9221;42.646;23.380;2022-12-26T09:54:43;20.50;;;7.03;;
3967;SDS011;9221;42.646;23.380;2022-12-26T09:57:26;18.73;;;7.80;;
3967;SDS011;9221;42.646;23.380;2022-12-26T10:00:05;21.73;;;7.23;;
3967;SDS011;9221;42.646;23.380;2022-12-26T10:02:31;21.20;;;8.13;;
3967;SDS011;9221;42.646;23.380;2022-12-26T10:04:58;24.00;;;8.20;;
3967;SDS011;9221;42.646;23.380;2022-12-26T10:10:01;21.57;;;6.80;;
3967;SDS011;9221;42.646;23.380;2022-12-26T10:17:33;14.13;;;5.73;;
3967;SDS011;9221;42.646;23.380;2022-12-26T10:25:44;14.90;;;5.70;;
3967;SDS011;9221;42.646;23.380;2022-12-26T10:30:58;12.07;;;5.37;;
3967;SDS011;9221;42.646;23.380;2022-12-26T10:34:12;12.80;;;5.00;;
3967;SDS011;9221;42.646;23.380;2022-12-26T10:36:46;20.57;;;5.97;;
3967;SDS011;9221;42.646;23.380;2022-12-26T10:39:37;12.83;;;5.20;;
3967;SDS011;9221;42.646;23.380;2022-12-26T10:42:22;21.17;;;6.17;;
3967;SDS011;9221;42.646;23.380;2022-12-26T10:44:53;20.00;;;6.27;;
3967;SDS011;9221;42.646;23.380;2022-12-26T10:47:26;19.23;;;5.77;;
3967;SDS011;9221;42.646;23.380;2022-12-26T10:49:57;13.63;;;4.47;;
3967;SDS011;9221;42.646;23.380;2022-12-26T10:52:27;18.07;;;5.60;;
3967;SDS011;9221;42.646;23.380;2022-12-26T10:54:58;23.13;;;5.90;;
3967;SDS011;9221;42.646;23.380;2022-12-26T10:57:26;13.27;;;5.60;;
3967;SDS011;9221;42.646;23.380;2022-12-26T10:59:54;25.40;;;6.50;;
3967;SDS011;9221;42.646;23.380;2022-12-26T11:05:10;27.87;;;8.30;;
3967;SDS011;9221;42.646;23.380;2022-12-26T11:07:36;20.98;;;7.05;;
3967;SDS011;9221;42.646;23.380;2022-12-26T11:10:07;15.50;;;6.10;;
3967;SDS011;9221;42.646;23.380;2022-12-26T11:12:42;20.67;;;6.60;;
3967;SDS011;9221;42.646;23.380;2022-12-26T11:17:43;21.07;;;6.10;;
3967;SDS011;9221;42.646;23.380;2022-12-26T11:20:15;16.77;;;6.40;;
3967;SDS011;9221;42.646;23.380;2022-12-26T11:22:49;17.63;;;5.63;;
3967;SDS011;9221;42.646;23.380;2022-12-26T11:25:20;16.97;;;5.30;;
3967;SDS011;9221;42.646;23.380;2022-12-26T11:27:50;18.33;;;5.50;;
3967;SDS011;9221;42.646;23.380;2022-12-26T11:30:20;13.20;;;5.23;;
3967;SDS011;9221;42.646;23.380;2022-12-26T11:33:05;13.60;;;4.40;;
3967;SDS011;9221;42.646;23.380;2022-12-26T11:35:43;9.27;;;3.80;;
3967;SDS011;9221;42.646;23.380;2022-12-26T11:38:13;9.47;;;3.63;;
3967;SDS011;9221;42.646;23.380;2022-12-26T11:40:59;11.60;;;3.40;;
3967;SDS011;9221;42.646;23.380;2022-12-26T11:43:47;7.73;;;3.10;;
3967;SDS011;9221;42.646;23.380;2022-12-26T11:46:14;7.27;;;3.30;;
3967;SDS011;9221;42.646;23.380;2022-12-26T11:48:40;9.00;;;2.87;;
3967;SDS011;9221;42.646;23.380;2022-12-26T11:51:07;10.03;;;2.90;;
3967;SDS011;9221;42.646;23.380;2022-12-26T11:53:33;5.87;;;2.37;;
3967;SDS011;9221;42.646;23.380;2022-12-26T11:56:00;10.67;;;2.87;;
3967;SDS011;9221;42.646;23.380;2022-12-26T11:58:27;8.27;;;2.30;;
3967;SDS011;9221;42.646;23.380;2022-12-26T12:09:00;4.60;;;2.40;;
3967;SDS011;9221;42.646;23.380;2022-12-26T12:11:51;8.27;;;2.80;;
3967;SDS011;9221;42.646;23.380;2022-12-26T12:17:18;5.77;;;2.07;;
3967;SDS011;9221;42.646;23.380;2022-12-26T12:20:10;6.20;;;2.70;;
3967;SDS011;9221;42.646;23.380;2022-12-26T12:23:17;8.80;;;3.60;;
3967;SDS011;9221;42.646;23.380;2022-12-26T12:26:17;12.57;;;3.17;;
3967;SDS011;9221;42.646;23.380;2022-12-26T12:50:31;4.87;;;2.00;;
3967;SDS011;9221;42.646;23.380;2022-12-26T12:55:37;5.87;;;1.97;;
3967;SDS011;9221;42.646;23.380;2022-12-26T13:01:11;6.97;;;1.70;;
3967;SDS011;9221;42.646;23.380;2022-12-26T13:04:17;6.83;;;2.30;;
3967;SDS011;9221;42.646;23.380;2022-12-26T13:06:41;4.70;;;2.13;;
3967;SDS011;9221;42.646;23.380;2022-12-26T13:11:54;8.43;;;2.40;;
3967;SDS011;9221;42.646;23.380;2022-12-26T13:14:45;7.87;;;2.27;;
3967;SDS011;9221;42.646;23.380;2022-12-26T13:17:21;8.10;;;2.63;;
3967;SDS011;9221;42.646;23.380;2022-12-26T13:22:27;7.83;;;2.93;;
3967;SDS011;9221;42.646;23.380;2022-12-26T13:25:14;5.90;;;2.30;;
3967;SDS011;9221;42.646;23.380;2022-12-26T13:27:42;6.07;;;2.70;;
3967;SDS011;9221;42.646;23.380;2022-12-26T13:30:13;8.67;;;3.33;;
3967;SDS011;9221;42.646;23.380;2022-12-26T13:32:41;6.90;;;2.57;;
3967;SDS011;9221;42.646;23.380;2022-12-26T13:38:10;9.93;;;2.80;;
3967;SDS011;9221;42.646;23.380;2022-12-26T13:40:35;7.87;;;2.30;;
3967;SDS011;9221;42.646;23.380;2022-12-26T13:45:49;5.63;;;2.70;;
3967;SDS011;9221;42.646;23.380;2022-12-26T13:50:49;5.20;;;2.23;;
3967;SDS011;9221;42.646;23.380;2022-12-26T14:17:04;8.20;;;2.67;;
3967;SDS011;9221;42.646;23.380;2022-12-26T14:19:41;10.27;;;3.37;;
3967;SDS011;9221;42.646;23.380;2022-12-26T14:31:01;9.30;;;2.77;;
3967;SDS011;9221;42.646;23.380;2022-12-26T14:45:00;6.80;;;3.07;;
3967;SDS011;9221;42.646;23.380;2022-12-26T14:47:44;9.63;;;2.90;;
3967;SDS011;9221;42.646;23.380;2022-12-26T14:53:16;15.17;;;5.40;;
3967;SDS011;9221;42.646;23.380;2022-12-26T15:20:49;18.50;;;5.60;;
3967;SDS011;9221;42.646;23.380;2022-12-26T15:26:23;13.63;;;4.23;;
3967;SDS011;9221;42.646;23.380;2022-12-26T15:39:25;13.23;;;5.67;;
3967;SDS011;9221;42.646;23.380;2022-12-26T15:50:01;24.73;;;6.97;;
3967;SDS011;9221;42.646;23.380;2022-12-26T15:52:41;18.47;;;5.83;;
3967;SDS011;9221;42.646;23.380;2022-12-26T15:58:20;19.50;;;6.30;;
3967;SDS011;9221;42.646;23.380;2022-12-26T16:01:10;18.20;;;6.20;;
3967;SDS011;9221;42.646;23.380;2022-12-26T16:03:39;12.60;;;5.80;;
3967;SDS011;9221;42.646;23.380;2022-12-26T16:11:52;17.90;;;5.93;;
3967;SDS011;9221;42.646;23.380;2022-12-26T16:16:54;17.33;;;5.97;;
3967;SDS011;9221;42.646;23.380;2022-12-26T16:19:34;23.03;;;6.90;;
3967;SDS011;9221;42.646;23.380;2022-12-26T16:22:02;21.17;;;7.43;;
3967;SDS011;9221;42.646;23.380;2022-12-26T16:24:49;22.23;;;7.33;;
3967;SDS011;9221;42.646;23.380;2022-12-26T16:27:17;34.10;;;8.90;;
3967;SDS011;9221;42.646;23.380;2022-12-26T16:29:48;28.13;;;8.30;;
3967;SDS011;9221;42.646;23.380;2022-12-26T16:32:21;42.27;;;9.43;;
3967;SDS011;9221;42.646;23.380;2022-12-26T16:34:53;25.50;;;7.57;;
3967;SDS011;9221;42.646;23.380;2022-12-26T16:37:20;33.13;;;9.60;;
3967;SDS011;9221;42.646;23.380;2022-12-26T16:42:40;39.33;;;10.17;;
3967;SDS011;9221;42.646;23.380;2022-12-26T16:45:13;28.53;;;9.10;;
3967;SDS011;9221;42.646;23.380;2022-12-26T16:47:42;23.70;;;7.03;;
3967;SDS011;9221;42.646;23.380;2022-12-26T16:50:19;23.43;;;6.70;;
3967;SDS011;9221;42.646;23.380;2022-12-26T16:52:59;19.10;;;6.90;;
3967;SDS011;9221;42.646;23.380;2022-12-26T16:58:09;21.67;;;8.60;;
3967;SDS011;9221;42.646;23.380;2022-12-26T17:00:45;26.23;;;8.20;;
3967;SDS011;9221;42.646;23.380;2022-12-26T17:03:20;17.90;;;6.80;;
3967;SDS011;9221;42.646;23.380;2022-12-26T17:05:50;13.97;;;5.90;;
3967;SDS011;9221;42.646;23.380;2022-12-26T17:08:15;20.40;;;6.80;;
3967;SDS011;9221;42.646;23.380;2022-12-26T17:10:45;19.00;;;6.13;;
3967;SDS011;9221;42.646;23.380;2022-12-26T17:13:14;21.10;;;7.23;;
3967;SDS011;9221;42.646;23.380;2022-12-26T17:15:49;36.93;;;11.70;;
3967;SDS011;9221;42.646;23.380;2022-12-26T17:18:45;27.63;;;9.30;;
3967;SDS011;9221;42.646;23.380;2022-12-26T17:21:17;31.70;;;7.07;;
3967;SDS011;9221;42.646;23.380;2022-12-26T17:26:31;34.00;;;8.70;;
3967;SDS011;9221;42.646;23.380;2022-12-26T17:28:57;34.20;;;9.00;;
3967;SDS011;9221;42.646;23.380;2022-12-26T17:31:42;25.67;;;9.17;;
3967;SDS011;9221;42.646;23.380;2022-12-26T17:34:18;43.03;;;9.27;;
3967;SDS011;9221;42.646;23.380;2022-12-26T17:36:48;25.83;;;8.37;;
3967;SDS011;9221;42.646;23.380;2022-12-26T17:39:19;27.33;;;10.07;;
3967;SDS011;9221;42.646;23.380;2022-12-26T17:41:53;24.33;;;8.10;;
3967;SDS011;9221;42.646;23.380;2022-12-26T17:47:14;26.07;;;8.07;;
3967;SDS011;9221;42.646;23.380;2022-12-26T17:49:44;21.63;;;7.13;;
3967;SDS011;9221;42.646;23.380;2022-12-26T17:52:10;24.10;;;7.40;;
3967;SDS011;9221;42.646;23.380;2022-12-26T17:54:37;21.43;;;6.50;;
3967;SDS011;9221;42.646;23.380;2022-12-26T17:57:03;25.77;;;8.37;;
3967;SDS011;9221;42.646;23.380;2022-12-26T17:59:28;28.03;;;7.73;;
3967;SDS011;9221;42.646;23.380;2022-12-26T18:01:54;25.33;;;7.60;;
3967;SDS011;9221;42.646;23.380;2022-12-26T18:04:19;46.77;;;9.37;;
3967;SDS011;9221;42.646;23.380;2022-12-26T18:06:45;29.10;;;7.73;;
3967;SDS011;9221;42.646;23.380;2022-12-26T18:09:22;33.43;;;9.90;;
3967;SDS011;9221;42.646;23.380;2022-12-26T18:11:50;26.90;;;7.83;;
3967;SDS011;9221;42.646;23.380;2022-12-26T18:14:16;28.50;;;7.93;;
3967;SDS011;9221;42.646;23.380;2022-12-26T18:16:41;30.00;;;8.57;;
3967;SDS011;9221;42.646;23.380;2022-12-26T18:19:07;25.03;;;8.27;;
3967;SDS011;9221;42.646;23.380;2022-12-26T18:21:38;33.53;;;9.07;;
3967;SDS011;9221;42.646;23.380;2022-12-26T18:24:03;33.43;;;9.40;;
3967;SDS011;9221;42.646;23.380;2022-12-26T18:26:29;18.93;;;6.83;;
3967;SDS011;9221;42.646;23.380;2022-12-26T18:28:55;28.90;;;7.50;;
3967;SDS011;9221;42.646;23.380;2022-12-26T18:31:21;31.03;;;9.03;;
3967;SDS011;9221;42.646;23.380;2022-12-26T18:33:49;30.30;;;9.30;;
3967;SDS011;9221;42.646;23.380;2022-12-26T18:36:15;20.23;;;7.60;;
3967;SDS011;9221;42.646;23.380;2022-12-26T18:38:41;23.70;;;8.23;;
3967;SDS011;9221;42.646;23.380;2022-12-26T18:41:17;19.47;;;8.10;;
3967;SDS011;9221;42.646;23.380;2022-12-26T18:43:43;26.23;;;8.87;;
3967;SDS011;9221;42.646;23.380;2022-12-26T18:46:16;24.37;;;7.23;;
3967;SDS011;9221;42.646;23.380;2022-12-26T18:48:46;25.27;;;7.90;;
3967;SDS011;9221;42.646;23.380;2022-12-26T18:51:12;18.97;;;7.00;;
3967;SDS011;9221;42.646;23.380;2022-12-26T18:53:38;21.17;;;7.17;;
3967;SDS011;9221;42.646;23.380;2022-12-26T18:56:03;27.73;;;6.80;;
3967;SDS011;9221;42.646;23.380;2022-12-26T18:58:29;20.40;;;6.67;;
3967;SDS011;9221;42.646;23.380;2022-12-26T19:00:55;21.63;;;7.30;;
3967;SDS011;9221;42.646;23.380;2022-12-26T19:03:20;21.00;;;7.17;;
3967;SDS011;9221;42.646;23.380;2022-12-26T19:05:46;19.97;;;5.70;;
3967;SDS011;9221;42.646;23.380;2022-12-26T19:08:12;20.60;;;6.23;;
3967;SDS011;9221;42.646;23.380;2022-12-26T19:10:38;19.57;;;5.90;;
3967;SDS011;9221;42.646;23.380;2022-12-26T19:13:08;15.13;;;5.70;;
3967;SDS011;9221;42.646;23.380;2022-12-26T19:15:34;19.30;;;6.67;;
3967;SDS011;9221;42.646;23.380;2022-12-26T19:18:01;16.50;;;6.13;;
3967;SDS011;9221;42.646;23.380;2022-12-26T19:20:27;16.60;;;5.73;;
3967;SDS011;9221;42.646;23.380;2022-12-26T19:22:53;15.70;;;6.10;;
3967;SDS011;9221;42.646;23.380;2022-12-26T19:25:20;23.00;;;6.10;;